Time;durP1;ratioP1;P1;durP2;ratioP2;P2;SDS_P1;SDS_P2;PMS_P1;PMS_P2;Temp;Humidity;BMP_temperature;BMP_pressure;BME280_temperature;BME280_humidity;BME280_pressure;Samples;Min_cycle;Max_cycle;Signal;HPM_P1;HPM_P2
2022/04/09 00:01:52;;;;;;;19.73;3.47;;;;;;;1.88;97.35;100438.75;5131676;27;20088;-74
2022/04/09 00:04:18;;;;;;;11.13;3.08;;;;;;;1.88;98.17;100443.03;5132509;27;20408;-74
2022/04/09 00:06:43;;;;;;;15.18;4.30;;;;;;;1.83;98.02;100439.56;5095712;27;20081;-74
2022/04/09 00:09:08;;;;;;;13.02;3.67;;;;;;;1.75;97.70;100441.25;5092701;28;20028;-73
2022/04/09 00:11:33;;;;;;;14.02;3.92;;;;;;;1.78;98.88;100451.56;5111118;28;20048;-74
2022/04/09 00:13:59;;;;;;;13.35;3.45;;;;;;;1.74;98.49;100448.09;5113413;27;20054;-74
2022/04/09 00:16:24;;;;;;;17.48;3.63;;;;;;;1.73;98.79;100458.34;5127744;27;20042;-74
2022/04/09 00:18:49;;;;;;;18.17;4.50;;;;;;;1.72;98.80;100466.94;5114032;27;20031;-74
2022/04/09 00:21:14;;;;;;;15.93;3.72;;;;;;;1.69;99.26;100470.34;5108775;27;20031;-73
2022/04/09 00:23:40;;;;;;;13.80;4.35;;;;;;;1.70;99.63;100476.31;5112691;27;20043;-73
2022/04/09 00:26:05;;;;;;;20.15;3.90;;;;;;;1.67;98.74;100489.16;5113628;27;20024;-73
2022/04/09 00:28:30;;;;;;;16.77;4.13;;;;;;;1.64;99.79;100477.16;5106154;27;20024;-74
2022/04/09 00:30:56;;;;;;;20.75;3.88;;;;;;;1.63;99.83;100486.59;5090955;28;20387;-74
2022/04/09 00:33:21;;;;;;;24.83;4.32;;;;;;;1.67;99.91;100486.59;5097687;27;20036;-74
2022/04/09 00:35:47;;;;;;;16.48;3.17;;;;;;;1.64;99.35;100501.16;5113413;27;20027;-74
2022/04/09 00:38:12;;;;;;;16.60;3.97;;;;;;;1.63;100.00;100498.56;5116231;27;20041;-74
2022/04/09 00:40:38;;;;;;;16.90;4.13;;;;;;;1.66;100.00;100508.00;5119515;27;20026;-74
2022/04/09 00:43:03;;;;;;;18.05;4.10;;;;;;;1.65;100.00;100504.56;5116800;27;20047;-74
2022/04/09 00:45:29;;;;;;;17.10;3.65;;;;;;;1.61;99.79;100507.97;5105633;27;20024;-74
2022/04/09 00:47:54;;;;;;;19.83;3.20;;;;;;;1.62;100.00;100515.69;5104603;27;20018;-74
2022/04/09 00:50:19;;;;;;;21.02;3.80;;;;;;;1.62;100.00;100517.41;5108206;27;20078;-74
2022/04/09 00:52:50;;;;;;;15.63;3.25;;;;;;;1.63;100.00;100525.13;5093456;28;20379;-74
2022/04/09 00:58:14;;;;;;;19.38;4.43;;;;;;;1.62;100.00;100528.53;5089035;28;20115;-73
2022/04/09 01:00:41;;;;;;;19.92;3.47;;;;;;;1.63;100.00;100535.41;5104881;27;20042;-74
2022/04/09 01:03:09;;;;;;;13.63;3.50;;;;;;;1.59;100.00;100538.78;5110412;27;20023;-74
2022/04/09 01:05:35;;;;;;;25.17;4.38;;;;;;;1.57;100.00;100542.19;5110737;27;20032;-74
2022/04/09 01:08:03;;;;;;;14.13;3.20;;;;;;;1.54;100.00;100548.19;5109387;28;20298;-73
2022/04/09 01:10:28;;;;;;;15.48;4.05;;;;;;;1.53;100.00;100550.72;5111272;27;20024;-74
2022/04/09 01:12:54;;;;;;;18.52;3.70;;;;;;;1.52;100.00;100561.84;5108552;28;20035;-74
2022/04/09 01:15:19;;;;;;;16.33;3.70;;;;;;;1.48;100.00;100560.97;5111238;27;20028;-74
2022/04/09 01:17:44;;;;;;;11.32;3.15;;;;;;;1.47;100.00;100564.38;5111844;28;20106;-73
2022/04/09 01:20:29;;;;;;;13.05;3.63;;;;;;;1.47;100.00;100573.78;5109760;28;20428;-74
2022/04/09 01:22:54;;;;;;;18.40;4.32;;;;;;;1.46;100.00;100582.34;5110473;27;20089;-74
2022/04/09 01:25:20;;;;;;;17.00;3.90;;;;;;;1.48;100.00;100578.94;5110409;27;20110;-74
2022/04/09 01:27:48;;;;;;;12.70;3.20;;;;;;;1.44;100.00;100589.16;5120400;27;20156;-74
2022/04/09 01:30:15;;;;;;;14.82;3.28;;;;;;;1.41;100.00;100584.88;5104144;28;20419;-74
2022/04/09 01:32:40;;;;;;;13.18;3.30;;;;;;;1.39;100.00;100596.84;5099294;28;20043;-74
2022/04/09 01:35:06;;;;;;;18.27;3.40;;;;;;;1.33;100.00;100587.34;5107438;28;20032;-74
2022/04/09 01:37:31;;;;;;;17.85;4.18;;;;;;;1.31;100.00;100590.78;5121903;27;20471;-74
2022/04/09 01:39:58;;;;;;;18.52;3.78;;;;;;;1.31;100.00;100604.47;5117399;27;20034;-74
2022/04/09 01:42:26;;;;;;;17.52;4.30;;;;;;;1.26;100.00;100597.56;5120983;27;20050;-74
2022/04/09 01:44:51;;;;;;;19.50;3.58;;;;;;;1.25;100.00;100611.25;5110746;28;20031;-74
2022/04/09 01:47:20;;;;;;;18.20;3.53;;;;;;;1.22;100.00;100622.34;5117918;28;20033;-73
2022/04/09 01:49:45;;;;;;;17.90;3.38;;;;;;;1.22;100.00;100614.66;5110625;28;20027;-74
2022/04/09 01:52:11;;;;;;;16.33;3.40;;;;;;;1.21;100.00;100617.19;5107901;28;20055;-74
2022/04/09 01:54:36;;;;;;;19.17;3.17;;;;;;;1.22;100.00;100630.06;5109198;28;20063;-74
2022/04/09 01:57:01;;;;;;;14.43;3.40;;;;;;;1.22;100.00;100629.19;5123400;28;20038;-73
2022/04/09 01:59:27;;;;;;;19.52;3.28;;;;;;;1.24;100.00;100648.03;5102890;27;20045;-74
2022/04/09 02:01:52;;;;;;;16.67;3.95;;;;;;;1.22;100.00;100642.03;5101760;28;20115;-73
2022/04/09 02:04:17;;;;;;;12.93;2.47;;;;;;;1.20;100.00;100641.16;5107326;28;20062;-74
2022/04/09 02:06:43;;;;;;;19.23;3.50;;;;;;;1.25;100.00;100639.50;5110833;28;20395;-74
2022/04/09 02:09:11;;;;;;;18.50;3.45;;;;;;;1.22;100.00;100644.59;5110310;28;20028;-74
2022/04/09 02:11:41;;;;;;;13.23;2.88;;;;;;;1.24;100.00;100653.16;5108434;28;20453;-73
2022/04/09 02:14:08;;;;;;;21.58;2.85;;;;;;;1.28;100.00;100660.94;5115647;28;20030;-74
2022/04/09 02:16:33;;;;;;;16.55;3.05;;;;;;;1.29;100.00;100656.66;5118677;27;20062;-73
2022/04/09 02:19:02;;;;;;;17.30;3.03;;;;;;;1.28;100.00;100671.22;5108863;28;20061;-74
2022/04/09 02:21:28;;;;;;;13.65;3.28;;;;;;;1.22;100.00;100663.44;5112664;27;20115;-73
2022/04/09 02:23:53;;;;;;;17.23;3.33;;;;;;;1.25;100.00;100672.88;5099171;28;20115;-74
2022/04/09 02:26:19;;;;;;;22.63;3.63;;;;;;;1.25;100.00;100675.47;5107342;28;20023;-73
2022/04/09 02:28:47;;;;;;;16.65;3.75;;;;;;;1.24;100.00;100686.56;5117281;27;20459;-74
2022/04/09 02:31:13;;;;;;;17.73;3.47;;;;;;;1.23;100.00;100687.41;5130267;27;20050;-74
2022/04/09 02:33:38;;;;;;;17.92;3.35;;;;;;;1.22;100.00;100685.69;5117636;27;20058;-73
2022/04/09 02:36:05;;;;;;;15.27;3.20;;;;;;;1.23;100.00;100690.84;5127179;27;20099;-74
2022/04/09 02:38:31;;;;;;;16.08;2.90;;;;;;;1.22;100.00;100683.97;5112092;27;20027;-74
2022/04/09 02:40:56;;;;;;;11.88;3.05;;;;;;;1.23;100.00;100683.13;5135164;27;20031;-73
2022/04/09 02:43:21;;;;;;;23.45;4.22;;;;;;;1.22;100.00;100699.38;5135504;27;20069;-73
2022/04/09 02:45:47;;;;;;;14.30;3.08;;;;;;;1.20;100.00;100697.63;5133386;27;20484;-74
2022/04/09 02:48:12;;;;;;;11.73;2.50;;;;;;;1.23;100.00;100706.25;5118622;27;20356;-74
2022/04/09 02:50:37;;;;;;;18.10;3.42;;;;;;;1.32;100.00;100698.66;5117672;27;20059;-73
2022/04/09 02:53:03;;;;;;;18.15;3.53;;;;;;;1.35;100.00;100706.41;5125271;27;20036;-73
2022/04/09 02:55:29;;;;;;;17.65;2.97;;;;;;;1.40;100.00;100717.56;5106616;27;20105;-74
2022/04/09 02:57:55;;;;;;;13.07;2.60;;;;;;;1.39;100.00;100725.28;5111216;28;20023;-74
2022/04/09 03:00:23;;;;;;;15.95;2.50;;;;;;;1.44;100.00;100731.34;5119624;27;20439;-74
2022/04/09 03:02:48;;;;;;;13.27;2.65;;;;;;;1.47;100.00;100735.63;5114611;27;20032;-74
2022/04/09 03:05:13;;;;;;;15.25;3.03;;;;;;;1.40;100.00;100737.25;5114125;28;20374;-74
2022/04/09 03:07:39;;;;;;;18.23;2.60;;;;;;;1.42;99.34;100739.88;5114376;27;20028;-74
2022/04/09 03:10:04;;;;;;;17.50;2.80;;;;;;;1.33;99.80;100738.91;5115049;28;20024;-74
2022/04/09 03:12:30;;;;;;;11.57;3.00;;;;;;;1.30;100.00;100751.69;5116566;27;20079;-73
2022/04/09 03:14:55;;;;;;;11.13;2.60;;;;;;;1.24;100.00;100750.75;5121561;27;20035;-74
2022/04/09 03:17:20;;;;;;;17.45;3.05;;;;;;;1.16;100.00;100754.09;5113892;27;20387;-74
2022/04/09 03:19:45;;;;;;;18.33;3.30;;;;;;;1.08;100.00;100753.13;5102715;28;20369;-73
2022/04/09 03:22:11;;;;;;;9.82;2.60;;;;;;;1.01;100.00;100746.16;5115385;27;20028;-74
2022/04/09 03:24:36;;;;;;;14.02;3.40;;;;;;;1.02;100.00;100755.63;5120283;27;20115;-73
2022/04/09 03:27:02;;;;;;;10.00;3.17;;;;;;;1.00;100.00;100762.44;5118272;27;20494;-74
2022/04/09 03:29:28;;;;;;;11.98;3.30;;;;;;;0.98;100.00;100761.56;5114034;27;20432;-74
2022/04/09 03:31:53;;;;;;;16.33;3.05;;;;;;;0.92;100.00;100764.88;5109778;27;20032;-74
2022/04/09 03:34:19;;;;;;;18.27;3.58;;;;;;;0.91;100.00;100778.53;5098943;28;20027;-74
2022/04/09 03:36:44;;;;;;;17.52;2.78;;;;;;;0.89;100.00;100781.94;5113254;27;20038;-74
2022/04/09 03:39:09;;;;;;;16.05;3.53;;;;;;;0.86;100.00;100784.47;5125361;27;20474;-74
2022/04/09 03:41:34;;;;;;;18.20;4.10;;;;;;;0.84;100.00;100792.13;5118923;27;20403;-74
2022/04/09 03:44:00;;;;;;;9.45;2.83;;;;;;;0.82;100.00;100787.84;5109125;27;20070;-74
2022/04/09 03:46:25;;;;;;;14.40;3.20;;;;;;;0.77;100.00;100789.47;5112537;27;20466;-74
2022/04/09 03:48:50;;;;;;;14.95;3.22;;;;;;;0.74;100.00;100797.09;5109620;27;20157;-74
2022/04/09 03:51:16;;;;;;;16.95;3.70;;;;;;;0.69;100.00;100797.91;5111153;28;20495;-73
2022/04/09 03:53:41;;;;;;;7.78;2.88;;;;;;;0.63;100.00;100795.25;5127638;27;20023;-74
2022/04/09 03:56:06;;;;;;;13.45;3.22;;;;;;;0.58;100.00;100804.53;5101236;28;20028;-74
2022/04/09 03:58:31;;;;;;;16.92;3.35;;;;;;;0.56;100.00;100802.81;5114823;27;20031;-73
2022/04/09 04:00:57;;;;;;;22.60;3.20;;;;;;;0.51;100.00;100799.28;5100021;28;20451;-73
2022/04/09 04:03:25;;;;;;;16.20;3.72;;;;;;;0.49;100.00;100801.84;5103365;28;20040;-74
2022/04/09 04:05:50;;;;;;;14.45;3.47;;;;;;;0.50;100.00;100816.41;5108595;28;20479;-73
2022/04/09 04:08:15;;;;;;;14.57;3.13;;;;;;;0.45;100.00;100818.88;5112960;28;20019;-73
2022/04/09 04:10:41;;;;;;;19.05;3.53;;;;;;;0.46;100.00;100810.34;5111095;28;20034;-73
2022/04/09 04:13:06;;;;;;;13.40;3.10;;;;;;;0.45;100.00;100821.44;5113263;27;20096;-74
2022/04/09 04:15:35;;;;;;;17.45;3.80;;;;;;;0.41;100.00;100821.34;5110035;28;20176;-74
2022/04/09 04:18:01;;;;;;;13.93;2.95;;;;;;;0.38;100.00;100822.16;5112062;28;20144;-74
2022/04/09 04:20:26;;;;;;;13.90;3.38;;;;;;;0.39;100.00;100831.59;5104512;27;20028;-74
2022/04/09 04:22:52;;;;;;;18.77;3.63;;;;;;;0.39;100.00;100843.53;5108897;27;20106;-74
2022/04/09 04:25:18;;;;;;;19.38;3.33;;;;;;;0.41;100.00;100842.75;5106642;28;20030;-74
2022/04/09 04:27:46;;;;;;;20.30;3.10;;;;;;;0.39;100.00;100851.22;5108131;28;20030;-74
2022/04/09 04:30:13;;;;;;;14.77;3.13;;;;;;;0.36;100.00;100859.75;5107384;28;20031;-73
2022/04/09 04:32:38;;;;;;;12.18;2.95;;;;;;;0.30;100.00;100843.41;5099682;27;20479;-74
2022/04/09 04:35:04;;;;;;;17.05;3.40;;;;;;;0.32;100.00;100857.94;5101834;28;20031;-73
2022/04/09 04:37:56;;;;;;;20.08;3.47;;;;;;;0.33;100.00;100861.41;5108540;27;20427;-73
2022/04/09 04:40:21;;;;;;;16.60;3.78;;;;;;;0.32;100.00;100859.66;5103877;28;20110;-73
2022/04/09 04:42:49;;;;;;;16.17;3.28;;;;;;;0.30;100.00;100862.22;5102000;28;20511;-73
2022/04/09 04:45:14;;;;;;;14.23;4.10;;;;;;;0.28;100.00;100860.44;5105567;28;20023;-73
2022/04/09 04:47:48;;;;;;;13.82;3.55;;;;;;;0.27;100.00;100866.41;5092322;28;20043;-74
2022/04/09 04:50:15;;;;;;;14.40;3.55;;;;;;;0.34;100.00;100868.25;5100090;28;20067;-74
2022/04/09 04:52:41;;;;;;;18.40;3.30;;;;;;;0.36;100.00;100879.38;5107739;28;20027;-74
2022/04/09 04:55:10;;;;;;;14.57;3.28;;;;;;;0.41;100.00;100883.78;5108503;28;20115;-74
2022/04/09 04:57:50;;;;;;;15.60;3.63;;;;;;;0.42;100.00;100877.78;5117068;27;20492;-73
2022/04/09 05:00:21;;;;;;;12.35;3.10;;;;;;;0.50;100.00;100885.66;5112294;27;20380;-73
2022/04/09 05:02:46;;;;;;;15.57;2.90;;;;;;;0.50;100.00;100885.66;5114601;27;20038;-73
2022/04/09 05:05:12;;;;;;;17.60;3.58;;;;;;;0.53;100.00;100892.56;5113559;27;20027;-73
2022/04/09 05:07:45;;;;;;;16.50;3.25;;;;;;;0.60;100.00;100900.38;5103677;28;20032;-73
2022/04/09 05:10:13;;;;;;;15.35;3.40;;;;;;;0.63;100.00;100899.56;5107552;28;20115;-74
2022/04/09 05:12:38;;;;;;;16.38;3.50;;;;;;;0.66;100.00;100908.19;5106557;27;20355;-73
2022/04/09 05:15:05;;;;;;;22.20;3.65;;;;;;;0.69;100.00;100915.09;5113685;27;20038;-73
2022/04/09 05:17:30;;;;;;;16.77;3.28;;;;;;;0.68;100.00;100918.47;5125404;27;20122;-73
2022/04/09 05:19:56;;;;;;;15.48;3.75;;;;;;;0.64;100.00;100922.69;5111589;28;20118;-74
2022/04/09 05:22:21;;;;;;;20.13;3.85;;;;;;;0.70;100.00;100927.06;5113139;27;20016;-74
2022/04/09 05:24:46;;;;;;;12.35;3.60;;;;;;;0.74;100.00;100928.84;5132131;27;20035;-73
2022/04/09 05:27:12;;;;;;;20.10;3.50;;;;;;;0.80;100.00;100928.09;5131562;27;20049;-73
2022/04/09 05:29:37;;;;;;;11.35;3.17;;;;;;;0.80;100.00;100934.09;5126888;27;20031;-73
2022/04/09 05:32:02;;;;;;;11.70;3.22;;;;;;;0.79;100.00;100936.63;5131387;27;20035;-74
2022/04/09 05:34:28;;;;;;;13.40;3.25;;;;;;;0.77;100.00;100938.31;5131538;27;20068;-74
2022/04/09 05:36:53;;;;;;;19.02;3.95;;;;;;;0.87;100.00;100955.59;5132223;27;20106;-74
2022/04/09 05:39:18;;;;;;;15.13;2.70;;;;;;;0.93;100.00;100958.28;5132580;27;20023;-74
2022/04/09 05:41:44;;;;;;;17.08;3.55;;;;;;;0.96;100.00;100955.75;5131244;27;20042;-74
2022/04/09 05:44:09;;;;;;;14.57;3.42;;;;;;;1.06;100.00;100969.63;5130342;27;20029;-74
2022/04/09 05:46:35;;;;;;;13.75;2.92;;;;;;;1.14;100.00;100970.59;5122818;27;20035;-73
2022/04/09 05:49:00;;;;;;;18.33;3.33;;;;;;;1.22;100.00;100974.19;5128776;27;20031;-73
2022/04/09 05:51:25;;;;;;;18.50;3.40;;;;;;;1.36;100.00;100971.81;5119226;27;20395;-73
2022/04/09 05:53:51;;;;;;;18.55;3.80;;;;;;;1.47;100.00;100980.59;5111018;28;20114;-73
2022/04/09 05:56:16;;;;;;;30.77;4.35;;;;;;;1.57;100.00;100986.72;5111468;28;20031;-73
2022/04/09 05:58:42;;;;;;;17.77;3.35;;;;;;;1.69;100.00;100992.03;5111532;28;20023;-73
2022/04/09 06:01:08;;;;;;;14.50;2.90;;;;;;;1.78;100.00;100992.19;5111558;28;20039;-74
2022/04/09 06:03:33;;;;;;;16.08;3.45;;;;;;;1.93;100.00;100994.13;5111183;28;20483;-73
2022/04/09 06:05:59;;;;;;;20.08;3.40;;;;;;;2.02;100.00;100996.81;5129488;27;20110;-73
2022/04/09 06:08:24;;;;;;;15.70;3.60;;;;;;;2.13;100.00;101001.25;5125541;27;20058;-74
2022/04/09 06:10:50;;;;;;;17.83;3.22;;;;;;;2.19;99.99;101009.03;5114787;28;20023;-73
2022/04/09 06:13:16;;;;;;;13.07;3.30;;;;;;;2.29;99.77;100998.91;5113632;27;20019;-74
2022/04/09 06:15:41;;;;;;;18.80;3.47;;;;;;;2.40;99.35;101009.31;5130017;27;20358;-74
2022/04/09 06:18:07;;;;;;;13.95;3.60;;;;;;;2.49;97.81;101004.28;5135258;27;20031;-74
2022/04/09 06:20:33;;;;;;;16.17;3.70;;;;;;;2.57;97.64;101009.53;5109188;27;20703;-74
2022/04/09 06:22:59;;;;;;;16.08;3.10;;;;;;;2.66;97.22;101019.94;5108305;27;20034;-74
2022/04/09 06:25:25;;;;;;;15.57;3.00;;;;;;;2.76;96.68;101019.19;5118737;27;20015;-73
2022/04/09 06:27:50;;;;;;;11.85;2.97;;;;;;;2.89;95.40;101022.78;5118912;27;20111;-74
2022/04/09 06:30:15;;;;;;;10.70;3.03;;;;;;;3.03;94.79;101022.91;5118047;27;20159;-74
2022/04/09 06:32:41;;;;;;;13.20;3.20;;;;;;;3.19;94.36;101027.34;5115353;27;20359;-73
2022/04/09 06:35:07;;;;;;;11.70;2.72;;;;;;;3.31;93.23;101034.34;5114907;27;20031;-74
2022/04/09 06:37:36;;;;;;;18.55;3.33;;;;;;;3.63;92.69;101029.47;5109256;27;20505;-74
2022/04/09 06:40:02;;;;;;;11.48;2.60;;;;;;;3.86;92.01;101031.34;5118396;27;20073;-74
2022/04/09 06:42:27;;;;;;;14.00;2.80;;;;;;;3.94;90.49;101045.16;5120336;27;20012;-74
2022/04/09 06:44:52;;;;;;;14.13;2.85;;;;;;;4.07;90.26;101035.81;5114653;27;20089;-73
2022/04/09 06:47:18;;;;;;;16.40;3.30;;;;;;;4.35;89.08;101050.59;5124808;27;20368;-74
2022/04/09 06:49:43;;;;;;;9.95;2.30;;;;;;;4.67;88.54;101039.53;5118002;27;20040;-74
2022/04/09 06:52:08;;;;;;;15.10;3.08;;;;;;;4.81;87.28;101045.63;5101258;28;20036;-74
2022/04/09 06:54:33;;;;;;;19.83;3.30;;;;;;;4.89;86.40;101048.22;5108705;27;20390;-74
2022/04/09 06:56:59;;;;;;;15.93;3.58;;;;;;;4.99;86.94;101051.72;5120074;27;20030;-74
2022/04/09 06:59:24;;;;;;;17.00;3.33;;;;;;;5.06;87.45;101045.69;5118047;27;20600;-74
2022/04/09 07:01:49;;;;;;;16.20;2.70;;;;;;;5.04;86.06;101052.59;5133765;27;20016;-74
2022/04/09 07:04:16;;;;;;;11.55;2.65;;;;;;;4.95;85.61;101057.72;5134212;27;20074;-74
2022/04/09 07:06:44;;;;;;;21.40;3.25;;;;;;;4.84;84.93;101061.16;5134825;27;20054;-74
2022/04/09 07:09:09;;;;;;;13.50;2.58;;;;;;;4.68;85.95;101067.97;5134898;27;20500;-74
2022/04/09 07:11:34;;;;;;;10.88;2.75;;;;;;;4.59;86.23;101080.81;5116968;27;20023;-74
2022/04/09 07:14:00;;;;;;;5.93;2.42;;;;;;;4.47;87.39;101081.63;5114886;27;20038;-74
2022/04/09 07:16:25;;;;;;;13.80;3.15;;;;;;;4.35;87.37;101076.41;5116341;27;20040;-75
2022/04/09 07:18:50;;;;;;;13.45;3.42;;;;;;;4.26;88.28;101086.66;5132482;27;20023;-74
2022/04/09 07:21:15;;;;;;;12.88;2.88;;;;;;;4.17;89.46;101082.31;5130557;27;20023;-74
2022/04/09 07:23:41;;;;;;;11.15;3.30;;;;;;;4.20;88.59;101091.78;5123384;27;20053;-74
2022/04/09 07:26:06;;;;;;;13.45;3.10;;;;;;;4.20;88.86;101089.22;5134225;27;20087;-74
2022/04/09 07:28:31;;;;;;;11.00;2.85;;;;;;;4.20;90.02;101094.38;5114342;27;20475;-74
2022/04/09 07:30:57;;;;;;;19.17;2.90;;;;;;;4.31;89.62;101099.59;5115598;27;20073;-74
2022/04/09 07:33:22;;;;;;;18.67;3.33;;;;;;;4.39;88.33;101095.34;5113417;28;20031;-74
2022/04/09 07:35:49;;;;;;;9.23;2.63;;;;;;;4.45;87.56;101109.16;5130431;27;20043;-74
2022/04/09 07:38:14;;;;;;;13.05;3.38;;;;;;;4.57;86.72;101102.31;5112475;27;20058;-74
2022/04/09 07:40:40;;;;;;;12.00;3.33;;;;;;;4.65;86.68;101103.25;5110175;28;20059;-73
2022/04/09 07:43:05;;;;;;;9.02;3.00;;;;;;;4.74;86.54;101095.56;5116474;27;20360;-73
2022/04/09 07:45:31;;;;;;;14.38;3.60;;;;;;;4.93;86.36;101106.78;5109878;27;20055;-74
2022/04/09 07:47:58;;;;;;;14.00;3.55;;;;;;;5.08;86.68;101106.00;5119452;27;20083;-74
2022/04/09 07:50:25;;;;;;;14.25;2.88;;;;;;;5.21;85.73;101102.59;5121830;27;20052;-74
2022/04/09 07:52:51;;;;;;;10.77;3.33;;;;;;;5.36;85.48;101122.44;5127804;27;20023;-74
2022/04/09 07:55:16;;;;;;;19.48;3.80;;;;;;;5.45;83.06;101098.34;5133995;27;20028;-73
2022/04/09 07:57:47;;;;;;;16.08;3.70;;;;;;;5.57;83.82;101106.97;5134426;27;20046;-74
2022/04/09 08:00:14;;;;;;;16.83;3.20;;;;;;;5.64;82.61;101108.69;5116106;27;20074;-74
2022/04/09 08:02:40;;;;;;;12.00;2.65;;;;;;;5.77;81.59;101113.88;5110679;27;20042;-74
2022/04/09 08:05:05;;;;;;;13.45;3.65;;;;;;;5.89;82.10;101110.47;5133072;27;20027;-74
2022/04/09 08:07:31;;;;;;;15.45;3.03;;;;;;;5.98;82.66;101107.88;5111074;28;20027;-78
2022/04/09 08:09:56;;;;;;;14.50;3.03;;;;;;;6.15;81.51;101111.34;5112295;28;20027;-78
2022/04/09 08:12:21;;;;;;;12.57;3.22;;;;;;;6.37;80.14;101117.31;5102043;27;20440;-74
2022/04/09 08:14:47;;;;;;;11.88;2.78;;;;;;;6.44;75.87;101113.88;5112305;28;20031;-74
2022/04/09 08:17:13;;;;;;;9.73;2.55;;;;;;;6.60;74.00;101122.47;5106147;28;20027;-74
2022/04/09 08:19:38;;;;;;;11.90;2.85;;;;;;;6.77;75.46;101112.94;5111544;28;20445;-74
2022/04/09 08:22:05;;;;;;;11.25;3.03;;;;;;;6.91;71.37;101124.97;5100673;27;20028;-74
2022/04/09 08:24:30;;;;;;;7.95;2.33;;;;;;;7.01;71.59;101117.13;5096973;28;20093;-74
2022/04/09 08:26:56;;;;;;;8.45;2.38;;;;;;;7.24;70.50;101127.41;5111491;27;20056;-74
2022/04/09 08:29:23;;;;;;;8.57;2.67;;;;;;;7.22;70.03;101129.13;5110614;28;20024;-74
2022/04/09 08:31:48;;;;;;;12.43;2.38;;;;;;;7.15;66.15;101126.59;5125299;27;20104;-75
2022/04/09 08:34:14;;;;;;;10.90;2.58;;;;;;;7.10;68.31;101126.63;5118280;27;20466;-73
2022/04/09 08:36:39;;;;;;;10.15;2.40;;;;;;;7.17;68.54;101133.50;5112378;27;20078;-74
2022/04/09 08:39:05;;;;;;;6.60;2.47;;;;;;;7.33;67.85;101134.28;5112350;28;20501;-74
2022/04/09 08:41:30;;;;;;;7.22;2.40;;;;;;;7.47;67.59;101147.16;5112844;27;20035;-74
2022/04/09 08:43:55;;;;;;;10.27;2.40;;;;;;;7.48;67.49;101143.69;5095130;28;20085;-74
2022/04/09 08:46:25;;;;;;;9.35;1.98;;;;;;;7.80;65.57;101142.63;5092196;28;20112;-74
2022/04/09 08:48:50;;;;;;;8.20;1.77;;;;;;;8.31;63.48;101143.94;5093818;28;20027;-74
2022/04/09 08:51:16;;;;;;;10.13;2.30;;;;;;;8.55;61.91;101135.06;5110080;28;20092;-74
2022/04/09 08:53:43;;;;;;;6.68;2.08;;;;;;;8.59;62.75;101148.88;5112758;28;20015;-74
2022/04/09 08:56:11;;;;;;;5.97;2.08;;;;;;;8.77;62.87;101148.69;5112447;27;20421;-74
2022/04/09 08:58:36;;;;;;;8.98;2.30;;;;;;;8.91;59.85;101162.38;5112194;28;20114;-74
2022/04/09 09:01:01;;;;;;;8.43;2.22;;;;;;;8.71;59.63;101166.97;5111614;27;20127;-74
2022/04/09 09:03:27;;;;;;;10.55;1.98;;;;;;;8.61;60.32;101166.19;5121088;27;20110;-74
2022/04/09 09:05:52;;;;;;;5.38;1.80;;;;;;;8.58;56.00;101168.81;5132879;27;20114;-74
2022/04/09 09:08:36;;;;;;;6.10;1.88;;;;;;;8.51;59.37;101171.50;5133119;27;20098;-74
2022/04/09 09:11:02;;;;;;;5.72;1.70;;;;;;;8.37;55.75;101169.88;5095006;27;20510;-74
2022/04/09 09:13:27;;;;;;;7.25;1.83;;;;;;;8.57;57.39;101174.91;5092310;28;20024;-74
2022/04/09 09:15:55;;;;;;;11.00;2.60;;;;;;;8.73;55.71;101183.41;5091784;28;20455;-74
2022/04/09 09:18:25;;;;;;;7.53;2.08;;;;;;;8.71;57.96;101189.50;5102237;28;20062;-74
2022/04/09 09:20:57;;;;;;;7.00;1.75;;;;;;;8.62;55.65;101182.63;5109916;28;20019;-73
2022/04/09 09:23:29;;;;;;;5.03;1.45;;;;;;;9.01;53.05;101186.56;5111140;28;20031;-74
2022/04/09 09:25:56;;;;;;;4.65;1.42;;;;;;;9.41;49.76;101182.59;5125864;27;20031;-74
2022/04/09 09:28:26;;;;;;;6.55;1.85;;;;;;;9.79;52.48;101180.31;5132551;27;20436;-74
2022/04/09 09:30:52;;;;;;;6.50;1.50;;;;;;;10.24;48.67;101185.69;5114986;27;20031;-74
2022/04/09 09:33:18;;;;;;;4.80;1.50;;;;;;;10.31;49.89;101176.94;5119861;27;20076;-74
2022/04/09 09:35:51;;;;;;;6.65;1.75;;;;;;;10.23;52.29;101191.78;5132582;27;20035;-74
2022/04/09 09:38:22;;;;;;;8.25;1.67;;;;;;;10.12;51.40;101198.06;5132330;27;20023;-74
2022/04/09 09:40:48;;;;;;;4.30;1.40;;;;;;;9.82;52.44;101201.09;5114224;27;20039;-74
2022/04/09 09:43:15;;;;;;;4.82;1.60;;;;;;;9.42;49.83;101203.41;5111770;28;20024;-74
2022/04/09 09:45:41;;;;;;;3.00;1.35;;;;;;;9.06;48.39;101202.97;5111277;28;20147;-74
2022/04/09 09:48:18;;;;;;;2.55;1.40;;;;;;;8.74;50.53;101197.25;5113409;28;20044;-74
2022/04/09 09:50:45;;;;;;;3.70;1.15;;;;;;;8.64;50.15;101202.56;5095999;28;20040;-74
2022/04/09 09:53:10;;;;;;;5.45;1.60;;;;;;;8.67;50.49;101201.66;5110132;28;20064;-74
2022/04/09 09:55:46;;;;;;;6.70;1.60;;;;;;;8.77;53.00;101202.44;5110889;28;20028;-74
2022/04/09 09:58:18;;;;;;;5.85;1.80;;;;;;;9.14;53.08;101203.72;5111745;28;20028;-74
2022/04/09 10:00:43;;;;;;;4.82;1.30;;;;;;;9.35;52.40;101197.44;5104174;28;20122;-74
2022/04/09 10:03:13;;;;;;;3.50;1.38;;;;;;;9.63;50.74;101198.78;5096566;28;20106;-75
2022/04/09 10:05:39;;;;;;;4.78;1.50;;;;;;;9.52;50.42;101207.63;5109604;28;20024;-74
2022/04/09 10:08:05;;;;;;;5.25;1.27;;;;;;;9.25;48.57;101205.34;5099849;28;20023;-74
2022/04/09 10:10:37;;;;;;;4.25;1.52;;;;;;;9.52;48.29;101214.56;5115786;28;20063;-75
2022/04/09 10:13:06;;;;;;;5.80;1.35;;;;;;;10.02;50.53;101207.75;5109260;28;20073;-75
2022/04/09 10:15:32;;;;;;;7.75;1.50;;;;;;;9.99;46.83;101206.06;5110911;28;20099;-74
2022/04/09 10:17:59;;;;;;;3.58;1.33;;;;;;;9.81;47.25;101199.41;5104116;28;20023;-74
2022/04/09 10:20:28;;;;;;;6.68;1.42;;;;;;;9.56;48.71;101213.63;5110207;28;20047;-74
2022/04/09 10:22:59;;;;;;;3.35;1.27;;;;;;;9.75;47.29;101214.25;5108891;28;20028;-75
2022/04/09 10:25:29;;;;;;;3.17;1.30;;;;;;;9.92;46.60;101217.47;5106306;28;20475;-74
2022/04/09 10:28:03;;;;;;;2.08;1.20;;;;;;;10.27;47.55;101210.88;5107341;28;20503;-74
2022/04/09 10:30:38;;;;;;;8.77;1.50;;;;;;;10.75;45.74;101222.19;5111453;28;20080;-74
2022/04/09 10:33:20;;;;;;;4.97;1.60;;;;;;;10.40;46.51;101215.00;5112777;28;20043;-74
2022/04/09 10:35:46;;;;;;;2.08;0.88;;;;;;;9.91;43.61;101228.78;5109393;28;20020;-74
2022/04/09 10:38:23;;;;;;;4.35;1.30;;;;;;;9.73;44.76;101229.88;5112408;28;20043;-74
2022/04/09 10:40:49;;;;;;;3.78;1.25;;;;;;;10.15;45.26;101219.72;5101985;28;20475;-74
2022/04/09 10:43:23;;;;;;;3.20;1.20;;;;;;;10.22;43.38;101225.69;5091421;28;20039;-74
2022/04/09 10:46:00;;;;;;;5.00;1.42;;;;;;;9.89;44.13;101227.94;5097868;28;20084;-74
2022/04/09 10:48:30;;;;;;;7.00;1.60;;;;;;;9.58;45.04;101227.47;5089703;28;20115;-74
2022/04/09 10:51:08;;;;;;;5.90;1.52;;;;;;;9.20;44.94;101226.22;5092751;28;20084;-74
2022/04/09 10:53:35;;;;;;;2.63;1.10;;;;;;;9.02;46.78;101227.28;5098499;27;20035;-74
2022/04/09 10:56:29;;;;;;;3.35;1.77;;;;;;;9.40;46.08;101228.59;5091980;28;20068;-74
2022/04/09 10:59:04;;;;;;;3.15;0.85;;;;;;;9.97;42.46;101228.69;5096445;28;20360;-74
2022/04/09 11:01:50;;;;;;;2.92;1.00;;;;;;;10.39;42.29;101220.22;5094636;28;20137;-74
2022/04/09 11:04:37;;;;;;;3.28;0.95;;;;;;;10.57;41.23;101232.13;5114388;27;20044;-75
2022/04/09 11:07:06;;;;;;;2.60;0.93;;;;;;;10.70;38.91;101212.75;5113028;28;20031;-73
2022/04/09 11:09:41;;;;;;;2.65;1.25;;;;;;;10.92;39.81;101218.41;5107704;27;20554;-74
2022/04/09 11:12:07;;;;;;;3.08;0.88;;;;;;;10.98;39.91;101220.91;5114357;28;20023;-74
2022/04/09 11:14:49;;;;;;;3.00;0.70;;;;;;;10.53;39.72;101231.31;5114387;28;20455;-74
2022/04/09 11:17:15;;;;;;;1.70;0.80;;;;;;;10.02;39.02;101237.28;5112290;27;20020;-73
2022/04/09 11:19:42;;;;;;;2.40;1.20;;;;;;;10.02;40.40;101239.03;5114345;28;20062;-75
2022/04/09 11:22:09;;;;;;;1.35;0.57;;;;;;;10.02;40.01;101229.47;5114649;28;20533;-75
2022/04/09 11:24:41;;;;;;;4.15;1.00;;;;;;;9.79;39.11;101240.22;5112516;28;20040;-75